Tyro, Virginia
Current Conditions -  °F | °C
As of 5:35 AM on Thursday 18 Dec 2014 (Local Time) from KW13 Reporting Station
Clear Clear  
Wind Chill: 27°   Ceiling: Unl
Heat Index: 27°   Visibility: 10mi
Dew Point: 20°   Wind: 0mph
Humidity: 73%   Direction: NA
Pressure: 30.1"   Gusts: NA
Location:  37.81°N, 79.02°W
Report Text: KW13 181035Z AUTO 00000KT 10SM CLR M03/M07 A3010 RMK AO1 T10261069
Loading
Personal Weather Stations






























Interactive Weather Map New forecast layout! Learn more

10-Day Weather Forecast

Advertisements
Track Severe Weather on mobile